Time;durP1;ratioP1;P1;durP2;ratioP2;P2;SDS_P1;SDS_P2;PMS_P1;PMS_P2;Temp;Humidity;BMP_temperature;BMP_pressure;BME280_temperature;BME280_humidity;BME280_pressure;Samples;Min_cycle;Max_cycle;Signal;HPM_P1;HPM_P2
2023/02/17 00:01:19;;;;;;;44.92;25.10;;;6.30;66.60;;;;;;5000492;28;20034;-84
2023/02/17 00:03:46;;;;;;;48.90;27.60;;;6.30;66.70;;;;;;5018025;28;20538;-84
2023/02/17 00:06:14;;;;;;;47.25;25.98;;;6.40;66.80;;;;;;5017218;28;20044;-84
2023/02/17 00:08:40;;;;;;;37.42;21.50;;;6.40;66.80;;;;;;5001032;28;20026;-84
2023/02/17 00:11:06;;;;;;;42.75;24.13;;;6.50;66.80;;;;;;5018953;28;20048;-84
2023/02/17 00:13:32;;;;;;;44.65;25.13;;;6.50;66.80;;;;;;5001170;28;20428;-83
2023/02/17 00:15:58;;;;;;;46.30;23.65;;;6.60;66.70;;;;;;5018975;28;20152;-84
2023/02/17 00:18:24;;;;;;;42.20;22.33;;;6.60;66.60;;;;;;5000645;28;20061;-84
2023/02/17 00:20:50;;;;;;;42.42;24.02;;;6.60;66.50;;;;;;5000327;28;20050;-84
2023/02/17 00:23:16;;;;;;;44.90;24.52;;;6.70;66.50;;;;;;5000691;28;20033;-84
2023/02/17 00:25:42;;;;;;;37.22;22.17;;;6.70;66.40;;;;;;5000721;28;20513;-84
2023/02/17 00:28:08;;;;;;;39.15;22.90;;;6.70;66.30;;;;;;5001501;28;20029;-82
2023/02/17 00:30:36;;;;;;;44.08;24.42;;;6.80;66.30;;;;;;4989252;28;20427;-82
2023/02/17 00:33:01;;;;;;;39.83;22.40;;;6.80;66.20;;;;;;5017246;28;20017;-83
2023/02/17 00:35:27;;;;;;;40.60;21.95;;;6.90;66.20;;;;;;5016190;28;20104;-81
2023/02/17 00:37:53;;;;;;;55.65;30.38;;;6.90;66.10;;;;;;5016298;28;20022;-82
2023/02/17 00:40:19;;;;;;;49.53;24.65;;;6.90;66.00;;;;;;5016761;28;20030;-82
2023/02/17 00:42:46;;;;;;;39.60;22.05;;;6.90;65.80;;;;;;5016974;28;20045;-84
2023/02/17 00:45:12;;;;;;;37.55;20.85;;;6.90;65.70;;;;;;5016160;28;20022;-80
2023/02/17 00:47:38;;;;;;;41.15;22.27;;;7.00;65.80;;;;;;5027570;28;20033;-77
2023/02/17 00:50:05;;;;;;;39.90;22.65;;;7.00;65.80;;;;;;5008772;28;20088;-77
2023/02/17 00:52:31;;;;;;;39.40;22.35;;;7.00;65.80;;;;;;5016144;28;20042;-77
2023/02/17 00:54:56;;;;;;;51.72;25.30;;;7.00;65.80;;;;;;5001720;28;20057;-78
2023/02/17 00:57:23;;;;;;;40.55;23.92;;;7.00;65.70;;;;;;4999996;28;20027;-78
2023/02/17 00:59:49;;;;;;;40.88;22.90;;;7.00;65.60;;;;;;5000967;28;20034;-78
2023/02/17 01:02:15;;;;;;;44.42;24.05;;;7.00;65.70;;;;;;5013765;28;20021;-78
2023/02/17 01:04:41;;;;;;;40.35;22.60;;;7.10;65.70;;;;;;5014287;28;20364;-77
2023/02/17 01:07:06;;;;;;;38.92;22.30;;;7.10;65.80;;;;;;5011371;28;20034;-77
2023/02/17 01:09:32;;;;;;;35.65;20.10;;;7.10;65.70;;;;;;4997602;28;20109;-78
2023/02/17 01:11:58;;;;;;;37.22;21.60;;;7.10;65.70;;;;;;5015408;28;20387;-77
2023/02/17 01:14:23;;;;;;;40.05;21.73;;;7.10;65.70;;;;;;5015253;28;20073;-78
2023/02/17 01:16:49;;;;;;;34.78;21.42;;;7.20;65.80;;;;;;4996333;28;20033;-78
2023/02/17 01:19:18;;;;;;;39.78;22.52;;;7.20;65.80;;;;;;5013527;28;20029;-77
2023/02/17 01:21:44;;;;;;;43.63;24.17;;;7.20;65.70;;;;;;5014618;28;20034;-77
2023/02/17 01:24:11;;;;;;;41.13;23.70;;;7.20;65.70;;;;;;5013614;28;20030;-78
2023/02/17 01:26:38;;;;;;;39.63;23.15;;;7.20;65.70;;;;;;5010850;28;20101;-77
2023/02/17 01:29:05;;;;;;;42.58;24.58;;;7.20;65.50;;;;;;5015050;28;20080;-78
2023/02/17 01:31:31;;;;;;;40.58;22.45;;;7.20;65.30;;;;;;4996790;28;20026;-77
2023/02/17 01:33:59;;;;;;;34.90;20.95;;;7.20;65.40;;;;;;4996829;28;20036;-77
2023/02/17 01:36:25;;;;;;;39.60;22.27;;;7.10;65.50;;;;;;5014584;28;20053;-78
2023/02/17 01:38:51;;;;;;;38.92;20.30;;;7.20;65.60;;;;;;5013821;28;20033;-77
2023/02/17 01:41:20;;;;;;;42.33;25.50;;;7.20;65.70;;;;;;4996882;28;20030;-77
2023/02/17 01:44:19;;;;;;;40.35;24.40;;;7.20;65.60;;;;;;5014844;28;20056;-77
2023/02/17 01:46:47;;;;;;;47.40;25.95;;;7.20;65.60;;;;;;5013566;28;20030;-78
2023/02/17 01:49:19;;;;;;;42.15;25.42;;;7.30;65.70;;;;;;5014615;28;20032;-78
2023/02/17 01:51:48;;;;;;;45.55;26.45;;;7.30;65.70;;;;;;5014063;28;20029;-77
2023/02/17 01:54:29;;;;;;;49.15;26.30;;;7.30;65.70;;;;;;5014400;28;20498;-77
2023/02/17 01:56:56;;;;;;;44.40;24.35;;;7.30;65.70;;;;;;4996872;28;20026;-77
2023/02/17 01:59:22;;;;;;;44.60;25.02;;;7.40;65.70;;;;;;5014695;28;20017;-78
2023/02/17 02:01:55;;;;;;;37.45;22.05;;;7.40;65.60;;;;;;5013539;28;20040;-78
2023/02/17 02:04:24;;;;;;;35.83;21.85;;;7.40;65.60;;;;;;5013706;28;20422;-77
2023/02/17 02:06:50;;;;;;;39.88;23.27;;;7.40;65.60;;;;;;5013455;28;20026;-77
2023/02/17 02:09:40;;;;;;;37.38;21.30;;;7.50;65.50;;;;;;5013636;28;20025;-77
2023/02/17 02:12:22;;;;;;;40.25;21.95;;;7.50;65.40;;;;;;5008498;28;20109;-77
2023/02/17 02:14:49;;;;;;;37.42;22.17;;;7.50;65.30;;;;;;4995554;28;20037;-77
2023/02/17 02:17:26;;;;;;;40.63;22.48;;;7.50;65.20;;;;;;5013818;28;20483;-77
2023/02/17 02:20:17;;;;;;;36.50;21.75;;;7.50;65.10;;;;;;5012279;28;20030;-77
2023/02/17 02:22:59;;;;;;;44.08;23.77;;;7.50;65.10;;;;;;5013753;28;20034;-77
2023/02/17 02:26:02;;;;;;;49.25;26.50;;;7.50;65.10;;;;;;5013403;28;20025;-77
2023/02/17 02:28:55;;;;;;;41.20;23.92;;;7.40;64.90;;;;;;5013591;28;20025;-77
2023/02/17 02:31:44;;;;;;;35.78;19.83;;;7.40;64.80;;;;;;4997492;28;20443;-77
2023/02/17 02:34:19;;;;;;;39.53;20.75;;;7.40;65.00;;;;;;5009844;28;20387;-77
2023/02/17 02:36:49;;;;;;;37.35;20.83;;;7.40;65.10;;;;;;5000653;28;20396;-77
2023/02/17 02:39:25;;;;;;;39.05;21.05;;;7.40;65.20;;;;;;5013820;28;20462;-77
2023/02/17 02:42:01;;;;;;;40.72;21.30;;;7.40;65.30;;;;;;4995844;28;20034;-78
2023/02/17 02:44:26;;;;;;;37.25;21.52;;;7.50;65.40;;;;;;5013285;28;20084;-77
2023/02/17 02:46:57;;;;;;;39.53;21.63;;;7.50;65.30;;;;;;5013371;28;20022;-78
2023/02/17 02:49:23;;;;;;;41.15;22.00;;;7.50;65.30;;;;;;4995225;28;20507;-77
2023/02/17 02:51:54;;;;;;;39.47;21.90;;;7.60;65.30;;;;;;5013034;28;20030;-77
2023/02/17 02:54:34;;;;;;;44.30;24.02;;;7.50;65.20;;;;;;4995817;28;20026;-77
2023/02/17 02:57:23;;;;;;;43.47;22.67;;;7.60;65.20;;;;;;5012910;28;20029;-76
2023/02/17 02:59:54;;;;;;;42.75;22.55;;;7.60;65.10;;;;;;4978117;28;20041;-78
2023/02/17 03:02:20;;;;;;;42.20;23.90;;;7.60;65.10;;;;;;5013235;28;20026;-77
2023/02/17 03:04:58;;;;;;;42.45;23.63;;;7.60;65.00;;;;;;5012443;28;20036;-77
2023/02/17 03:07:30;;;;;;;39.08;22.60;;;7.70;65.00;;;;;;4988092;28;20025;-76
2023/02/17 03:09:57;;;;;;;39.50;21.83;;;7.60;64.80;;;;;;4995515;28;20045;-77
2023/02/17 03:12:24;;;;;;;39.65;23.27;;;7.60;64.70;;;;;;5013067;28;20072;-77
2023/02/17 03:14:55;;;;;;;37.67;22.15;;;7.60;64.60;;;;;;5013287;28;20022;-76
2023/02/17 03:17:20;;;;;;;35.83;21.35;;;7.60;64.50;;;;;;5013202;28;20100;-77
2023/02/17 03:19:46;;;;;;;34.97;20.27;;;7.60;64.50;;;;;;5017138;28;20074;-77
2023/02/17 03:22:21;;;;;;;37.42;21.55;;;7.60;64.60;;;;;;5017110;28;20117;-77
2023/02/17 03:24:47;;;;;;;38.88;21.83;;;7.50;64.60;;;;;;5002596;28;20050;-77
2023/02/17 03:27:12;;;;;;;41.30;23.05;;;7.50;64.70;;;;;;5009245;28;20053;-77
2023/02/17 03:29:39;;;;;;;38.05;22.23;;;7.50;64.80;;;;;;5015735;28;20022;-76
2023/02/17 03:32:06;;;;;;;40.33;23.10;;;7.50;64.90;;;;;;5015783;28;20108;-76
2023/02/17 03:34:32;;;;;;;39.85;23.13;;;7.50;65.00;;;;;;5016082;28;20022;-76
2023/02/17 03:36:57;;;;;;;35.05;21.73;;;7.50;65.00;;;;;;4999109;28;20026;-77
2023/02/17 03:39:23;;;;;;;40.70;22.50;;;7.40;64.80;;;;;;4999035;28;20032;-76
2023/02/17 03:41:50;;;;;;;38.42;21.75;;;7.50;65.00;;;;;;5016739;28;20022;-77
2023/02/17 03:44:17;;;;;;;44.50;24.55;;;7.40;65.00;;;;;;5019834;28;20029;-77
2023/02/17 03:46:45;;;;;;;40.67;22.98;;;7.40;65.00;;;;;;5006190;28;20399;-76
2023/02/17 03:49:11;;;;;;;43.10;23.85;;;7.40;65.00;;;;;;5023701;28;20022;-77
2023/02/17 03:51:36;;;;;;;38.90;23.50;;;7.30;64.80;;;;;;5023379;28;20029;-77
2023/02/17 03:54:02;;;;;;;49.28;27.02;;;7.30;64.90;;;;;;5001388;28;20029;-77
2023/02/17 03:56:28;;;;;;;45.35;23.73;;;7.20;65.10;;;;;;5022429;28;20101;-76
2023/02/17 03:58:54;;;;;;;58.17;28.70;;;7.10;65.30;;;;;;5022846;28;20026;-77
2023/02/17 04:01:20;;;;;;;68.38;38.45;;;7.00;65.50;;;;;;5022005;28;20034;-77
2023/02/17 04:03:46;;;;;;;47.85;24.77;;;7.00;65.80;;;;;;5017675;28;20030;-77
2023/02/17 04:06:12;;;;;;;43.78;22.95;;;7.00;65.90;;;;;;5007380;28;20100;-77
2023/02/17 04:08:38;;;;;;;39.10;21.27;;;7.10;66.10;;;;;;5007546;28;20106;-76
2023/02/17 04:11:05;;;;;;;40.97;22.02;;;7.10;66.10;;;;;;5016250;28;20022;-77
2023/02/17 04:13:32;;;;;;;45.45;21.58;;;7.10;66.00;;;;;;4998636;28;20026;-77
2023/02/17 04:16:00;;;;;;;42.85;22.88;;;7.10;65.80;;;;;;5016178;28;20025;-77
2023/02/17 04:18:26;;;;;;;43.13;23.30;;;7.10;65.70;;;;;;5016055;28;20022;-77
2023/02/17 04:20:53;;;;;;;40.38;21.38;;;7.10;65.60;;;;;;5015578;28;20045;-77
2023/02/17 04:23:19;;;;;;;39.08;21.75;;;7.00;65.50;;;;;;5012985;28;20534;-77
2023/02/17 04:25:45;;;;;;;37.28;21.40;;;7.00;65.60;;;;;;5007907;28;20032;-77
2023/02/17 04:28:12;;;;;;;42.40;23.40;;;7.10;65.90;;;;;;5015880;28;20022;-77
2023/02/17 04:30:38;;;;;;;39.10;21.55;;;7.10;65.90;;;;;;5029673;28;20095;-77
2023/02/17 04:33:04;;;;;;;38.97;22.33;;;7.10;65.90;;;;;;5035452;28;20024;-78
2023/02/17 04:35:30;;;;;;;36.95;21.55;;;7.10;65.90;;;;;;5015143;28;20028;-78
2023/02/17 04:37:56;;;;;;;36.08;20.20;;;7.10;65.90;;;;;;5015525;28;20034;-77
2023/02/17 04:40:22;;;;;;;37.00;20.63;;;7.10;65.90;;;;;;4998726;28;20026;-77
2023/02/17 04:42:47;;;;;;;40.67;21.98;;;7.10;65.90;;;;;;5015366;28;20471;-78
2023/02/17 04:45:13;;;;;;;38.20;21.48;;;7.20;65.90;;;;;;5015267;28;20084;-77
2023/02/17 04:47:39;;;;;;;39.70;21.42;;;7.20;65.80;;;;;;4997690;28;20053;-78
2023/02/17 04:50:07;;;;;;;40.13;21.30;;;7.20;65.60;;;;;;5015279;28;20533;-77
2023/02/17 04:52:33;;;;;;;38.03;20.98;;;7.20;65.40;;;;;;5014955;28;20478;-77
2023/02/17 04:54:59;;;;;;;38.03;20.38;;;7.20;65.30;;;;;;5015451;28;20030;-77
2023/02/17 04:57:26;;;;;;;39.83;21.50;;;7.10;65.20;;;;;;5015218;28;20026;-77
2023/02/17 04:59:52;;;;;;;40.97;22.60;;;7.10;65.10;;;;;;5014930;28;20033;-77
2023/02/17 05:02:18;;;;;;;41.92;23.17;;;7.10;65.10;;;;;;5015121;28;20029;-77
2023/02/17 05:04:44;;;;;;;45.33;24.65;;;7.00;65.10;;;;;;5014602;28;20036;-77
2023/02/17 05:07:09;;;;;;;43.72;23.83;;;7.00;65.10;;;;;;5015100;28;20093;-77
2023/02/17 05:09:35;;;;;;;43.75;24.00;;;6.90;65.20;;;;;;5015252;28;20022;-77
2023/02/17 05:12:01;;;;;;;44.88;24.38;;;6.90;65.30;;;;;;5014731;28;20121;-77
2023/02/17 05:14:28;;;;;;;39.60;22.38;;;6.90;65.50;;;;;;5005962;28;20117;-77
2023/02/17 05:16:53;;;;;;;44.38;22.83;;;6.90;65.70;;;;;;5014584;28;20471;-77
2023/02/17 05:19:19;;;;;;;38.97;22.85;;;6.90;66.00;;;;;;4996751;28;20022;-77
2023/02/17 05:21:45;;;;;;;41.95;24.30;;;6.90;66.10;;;;;;5014856;28;20328;-78
2023/02/17 05:24:11;;;;;;;47.13;25.60;;;6.90;66.20;;;;;;4993533;28;20081;-77
2023/02/17 05:26:36;;;;;;;44.03;24.30;;;7.00;66.30;;;;;;4994873;28;20026;-77
2023/02/17 05:29:02;;;;;;;42.80;23.55;;;7.10;66.40;;;;;;4993622;28;20033;-77
2023/02/17 05:31:28;;;;;;;35.72;20.70;;;7.10;66.40;;;;;;4998917;28;20019;-77
2023/02/17 05:33:54;;;;;;;40.55;22.90;;;7.10;66.40;;;;;;5020123;28;20483;-77
2023/02/17 05:36:20;;;;;;;45.95;25.27;;;7.20;66.40;;;;;;5014478;28;20026;-77
2023/02/17 05:38:48;;;;;;;48.22;24.67;;;7.20;66.10;;;;;;5014398;28;20030;-77
2023/02/17 05:41:15;;;;;;;48.30;25.15;;;7.30;66.10;;;;;;4995942;28;20433;-77
2023/02/17 05:43:41;;;;;;;44.92;23.00;;;7.30;66.10;;;;;;5013269;28;20131;-77
2023/02/17 05:46:07;;;;;;;41.65;23.38;;;7.30;65.90;;;;;;5003058;28;20061;-78
2023/02/17 05:48:33;;;;;;;47.15;25.27;;;7.30;65.70;;;;;;5012993;28;20030;-77
2023/02/17 05:50:59;;;;;;;40.72;22.45;;;7.30;65.50;;;;;;5012732;28;20052;-77
2023/02/17 05:53:25;;;;;;;42.22;22.77;;;7.30;65.40;;;;;;5014287;28;20065;-77
2023/02/17 05:55:51;;;;;;;37.83;20.83;;;7.30;65.40;;;;;;5014082;28;20053;-77
2023/02/17 05:58:17;;;;;;;44.97;24.55;;;7.30;65.50;;;;;;5014005;28;20535;-77
2023/02/17 06:00:44;;;;;;;43.08;23.58;;;7.20;65.40;;;;;;5014209;28;20033;-77
2023/02/17 06:03:11;;;;;;;41.03;22.73;;;7.20;65.30;;;;;;5013823;28;20025;-77
2023/02/17 06:05:37;;;;;;;39.92;21.88;;;7.20;65.30;;;;;;4996274;28;20447;-77
2023/02/17 06:08:03;;;;;;;36.10;20.10;;;7.20;65.50;;;;;;5013898;28;20022;-77
2023/02/17 06:10:29;;;;;;;36.35;20.80;;;7.20;65.60;;;;;;5013712;28;20433;-78
2023/02/17 06:12:54;;;;;;;39.15;22.48;;;7.20;65.70;;;;;;5013360;28;20489;-77
2023/02/17 06:15:20;;;;;;;39.08;22.33;;;7.30;65.90;;;;;;4996024;28;20431;-77
2023/02/17 06:17:46;;;;;;;41.53;21.88;;;7.30;65.80;;;;;;5013685;28;20101;-77
2023/02/17 06:20:12;;;;;;;37.92;21.50;;;7.30;65.80;;;;;;4995951;28;20507;-77
2023/02/17 06:22:39;;;;;;;43.47;22.83;;;7.40;65.90;;;;;;4995938;28;20391;-77
2023/02/17 06:25:05;;;;;;;42.47;23.45;;;7.40;65.90;;;;;;5013256;28;20026;-77
2023/02/17 06:27:30;;;;;;;45.28;24.60;;;7.40;65.80;;;;;;4995915;28;20037;-77
2023/02/17 06:29:56;;;;;;;43.70;23.75;;;7.40;65.70;;;;;;5013569;28;20475;-77
2023/02/17 06:32:22;;;;;;;39.42;22.55;;;7.40;65.80;;;;;;4995534;28;20025;-77
2023/02/17 06:34:48;;;;;;;37.53;21.42;;;7.50;65.90;;;;;;4995514;28;20037;-77
2023/02/17 06:37:13;;;;;;;39.08;22.83;;;7.60;66.00;;;;;;4999352;28;20025;-77
2023/02/17 06:39:45;;;;;;;37.72;21.90;;;7.60;66.70;;;;;;5033216;28;20419;-77
2023/02/17 06:42:11;;;;;;;38.97;21.27;;;7.70;66.00;;;;;;5000246;28;20062;-77
2023/02/17 06:44:37;;;;;;;36.47;21.50;;;7.70;66.00;;;;;;5013366;28;20401;-77
2023/02/17 06:47:03;;;;;;;38.60;21.70;;;7.70;65.90;;;;;;4995756;28;20030;-77
2023/02/17 06:49:29;;;;;;;42.92;23.40;;;7.80;65.90;;;;;;4995714;28;20026;-77
2023/02/17 06:51:54;;;;;;;38.38;21.88;;;7.90;65.80;;;;;;5013378;28;20022;-77
2023/02/17 06:54:20;;;;;;;43.92;24.73;;;7.90;65.80;;;;;;5013106;28;20497;-77
2023/02/17 06:56:46;;;;;;;45.67;25.02;;;7.90;65.60;;;;;;5013560;28;20356;-77
2023/02/17 06:59:12;;;;;;;43.30;22.85;;;8.00;65.50;;;;;;5012912;28;20104;-78
2023/02/17 07:01:38;;;;;;;40.47;22.63;;;8.10;65.50;;;;;;4995852;28;20034;-78
2023/02/17 07:04:03;;;;;;;39.65;21.80;;;8.10;65.40;;;;;;5013220;28;20037;-77
2023/02/17 07:06:29;;;;;;;39.38;22.65;;;8.20;65.30;;;;;;5013061;28;20098;-77
2023/02/17 07:08:55;;;;;;;38.85;21.20;;;8.20;65.00;;;;;;4995436;28;20037;-77
2023/02/17 07:11:21;;;;;;;37.40;21.35;;;8.30;65.60;;;;;;4999801;28;20022;-78
2023/02/17 07:13:47;;;;;;;37.15;22.38;;;8.30;65.30;;;;;;5017465;28;20025;-77
2023/02/17 07:16:14;;;;;;;40.67;23.40;;;8.30;64.70;;;;;;5004563;28;20026;-78
2023/02/17 07:18:40;;;;;;;36.38;21.83;;;8.40;64.60;;;;;;4999886;28;20490;-77
2023/02/17 07:21:07;;;;;;;37.28;22.27;;;8.40;64.40;;;;;;4996874;28;20061;-78
2023/02/17 07:23:34;;;;;;;36.80;22.23;;;8.50;64.30;;;;;;5009939;28;20522;-77
2023/02/17 07:26:08;;;;;;;38.97;22.10;;;8.50;64.10;;;;;;4994489;28;20387;-77
2023/02/17 07:28:35;;;;;;;39.65;21.30;;;8.50;63.90;;;;;;4993175;28;20113;-78
2023/02/17 07:31:09;;;;;;;36.70;22.02;;;8.60;64.00;;;;;;5009480;28;20026;-78
2023/02/17 07:33:35;;;;;;;34.20;20.17;;;8.60;63.70;;;;;;5012587;28;20030;-77
2023/02/17 07:36:09;;;;;;;43.78;22.70;;;8.60;63.80;;;;;;5013329;28;20030;-77
2023/02/17 07:38:35;;;;;;;45.50;25.48;;;8.60;64.00;;;;;;5013426;28;20022;-77
2023/02/17 07:41:12;;;;;;;55.08;28.58;;;8.70;64.20;;;;;;5012368;28;20376;-77
2023/02/17 07:43:38;;;;;;;39.90;23.52;;;8.80;64.20;;;;;;5017511;28;20080;-78
2023/02/17 07:46:05;;;;;;;41.58;23.83;;;8.90;64.30;;;;;;5013213;28;20427;-78
2023/02/17 07:48:31;;;;;;;46.58;25.33;;;8.90;64.10;;;;;;4995502;28;20073;-77
2023/02/17 07:51:02;;;;;;;45.55;25.00;;;9.00;63.40;;;;;;4995609;28;20026;-77
2023/02/17 07:53:28;;;;;;;42.10;25.33;;;8.90;62.90;;;;;;5013366;28;20018;-77
2023/02/17 07:55:54;;;;;;;46.25;26.40;;;8.90;62.70;;;;;;5010870;28;20111;-78
2023/02/17 07:58:19;;;;;;;49.10;27.55;;;8.90;62.50;;;;;;4995209;28;20030;-77
2023/02/17 08:00:45;;;;;;;42.47;24.08;;;8.90;62.60;;;;;;4995302;28;20117;-77
2023/02/17 08:03:11;;;;;;;43.85;24.58;;;8.90;62.80;;;;;;5012183;28;20026;-78
2023/02/17 08:05:43;;;;;;;44.10;24.70;;;9.00;63.10;;;;;;4997726;28;20030;-78
2023/02/17 08:13:37;;;;;;;44.55;24.63;;;9.30;64.00;;;;;;5014674;28;19916;-78
2023/02/17 08:16:04;;;;;;;44.13;24.10;;;9.50;63.90;;;;;;5016531;28;20057;-78
2023/02/17 08:18:29;;;;;;;37.60;22.67;;;9.60;63.60;;;;;;5016425;28;20060;-77
2023/02/17 08:20:55;;;;;;;36.65;20.30;;;9.80;63.20;;;;;;5015605;28;20041;-78
2023/02/17 08:23:21;;;;;;;35.30;20.75;;;9.90;62.70;;;;;;5015720;28;20032;-78
2023/02/17 08:25:47;;;;;;;32.00;19.50;;;10.00;62.40;;;;;;4997903;28;20061;-78
2023/02/17 08:28:13;;;;;;;33.72;18.48;;;10.00;62.10;;;;;;5014227;28;20444;-77
2023/02/17 08:30:39;;;;;;;29.27;17.05;;;10.20;62.10;;;;;;4998138;28;20025;-77
2023/02/17 08:33:05;;;;;;;28.08;17.00;;;10.20;61.90;;;;;;5015757;28;20056;-77
2023/02/17 08:35:31;;;;;;;27.92;16.88;;;10.40;62.20;;;;;;4997667;28;20032;-77
2023/02/17 08:37:57;;;;;;;33.35;17.58;;;10.50;61.80;;;;;;5015720;28;20395;-77
2023/02/17 08:40:23;;;;;;;28.60;16.70;;;10.60;61.70;;;;;;5015349;28;20033;-78
2023/02/17 08:42:49;;;;;;;25.25;15.85;;;10.70;61.50;;;;;;5015240;28;20099;-77
2023/02/17 08:45:16;;;;;;;28.65;15.57;;;10.80;61.10;;;;;;4997794;28;20022;-77
2023/02/17 08:47:42;;;;;;;31.48;16.88;;;10.90;60.60;;;;;;4993804;28;20029;-77
2023/02/17 08:50:14;;;;;;;34.35;17.38;;;11.00;59.90;;;;;;5016931;28;20111;-77
2023/02/17 08:52:40;;;;;;;33.83;18.55;;;11.10;59.50;;;;;;5018719;28;20483;-78
2023/02/17 08:55:07;;;;;;;32.72;17.40;;;11.20;59.40;;;;;;4979528;28;20030;-78
2023/02/17 08:57:33;;;;;;;31.40;16.13;;;11.20;59.20;;;;;;5006149;28;20113;-77
2023/02/17 08:59:59;;;;;;;28.55;17.05;;;11.30;59.10;;;;;;5015712;28;20029;-77
2023/02/17 09:02:25;;;;;;;32.13;16.92;;;11.30;59.00;;;;;;5015467;28;20029;-78
2023/02/17 09:04:51;;;;;;;29.52;16.77;;;11.30;59.00;;;;;;5014418;28;20101;-78
2023/02/17 09:07:16;;;;;;;29.35;18.08;;;11.40;58.80;;;;;;5015225;28;20028;-78
2023/02/17 09:09:42;;;;;;;27.95;18.13;;;11.40;58.70;;;;;;5015481;28;20057;-77
2023/02/17 09:12:08;;;;;;;29.63;18.38;;;11.40;58.50;;;;;;4997690;28;20022;-77
2023/02/17 09:14:34;;;;;;;34.58;18.25;;;11.40;58.50;;;;;;4997183;28;20032;-77
2023/02/17 09:17:00;;;;;;;35.20;17.88;;;11.40;58.40;;;;;;5014690;28;20533;-77
2023/02/17 09:19:26;;;;;;;24.27;16.55;;;11.40;58.40;;;;;;4997217;28;20068;-77
2023/02/17 09:21:52;;;;;;;28.85;17.00;;;11.40;58.40;;;;;;4997433;28;20435;-77
2023/02/17 09:24:18;;;;;;;24.70;15.82;;;11.40;58.50;;;;;;5015354;28;20026;-78
2023/02/17 09:26:44;;;;;;;29.25;16.85;;;11.40;58.60;;;;;;5015911;28;20037;-77
2023/02/17 09:29:10;;;;;;;31.13;17.33;;;11.50;58.80;;;;;;5014714;28;20018;-78
2023/02/17 09:31:36;;;;;;;26.63;15.90;;;11.50;58.80;;;;;;5014597;28;20368;-78
2023/02/17 09:34:03;;;;;;;26.17;16.35;;;11.50;58.70;;;;;;5014322;28;20109;-77
2023/02/17 09:36:33;;;;;;;29.02;15.73;;;11.60;58.60;;;;;;5015013;28;20033;-78
2023/02/17 09:39:00;;;;;;;27.45;16.63;;;11.70;58.60;;;;;;5014619;28;20060;-78
2023/02/17 09:41:36;;;;;;;27.40;16.63;;;11.70;58.60;;;;;;5014568;28;20048;-78
2023/02/17 09:44:06;;;;;;;28.63;17.33;;;11.80;58.30;;;;;;5014349;28;20026;-78
2023/02/17 09:46:40;;;;;;;28.40;16.80;;;11.80;58.20;;;;;;5010118;28;20027;-78
2023/02/17 09:49:14;;;;;;;32.03;17.60;;;11.90;58.20;;;;;;5011498;28;20030;-79
2023/02/17 09:52:18;;;;;;;28.75;17.20;;;11.90;58.00;;;;;;5014631;28;20104;-78
2023/02/17 09:55:05;;;;;;;34.70;17.80;;;12.00;58.00;;;;;;4954644;28;20037;-77
2023/02/17 09:57:39;;;;;;;32.35;18.02;;;12.00;58.10;;;;;;5013947;28;20475;-77
2023/02/17 10:00:23;;;;;;;28.48;17.80;;;12.10;57.90;;;;;;4996761;28;20506;-77
2023/02/17 10:03:03;;;;;;;44.70;18.30;;;12.10;58.00;;;;;;4996680;28;20364;-78
2023/02/17 10:05:35;;;;;;;31.00;15.88;;;12.20;58.00;;;;;;4996155;28;20364;-77
2023/02/17 10:08:22;;;;;;;28.27;14.68;;;12.20;57.90;;;;;;5013827;28;20421;-77
2023/02/17 10:10:58;;;;;;;19.85;12.98;;;12.30;58.40;;;;;;4981705;28;20144;-77
2023/02/17 10:13:31;;;;;;;24.60;14.77;;;12.40;58.80;;;;;;5010352;28;20026;-78
2023/02/17 10:16:03;;;;;;;29.23;16.42;;;12.40;58.20;;;;;;5014520;28;20034;-76
2023/02/17 10:18:40;;;;;;;24.55;15.07;;;12.30;57.40;;;;;;5013922;28;20495;-77
2023/02/17 10:21:22;;;;;;;27.60;16.48;;;12.30;57.70;;;;;;5013913;28;20045;-77
2023/02/17 10:23:50;;;;;;;26.27;14.15;;;12.30;57.90;;;;;;5009658;28;20041;-77
2023/02/17 10:26:22;;;;;;;26.55;16.05;;;12.40;58.60;;;;;;4995449;28;20026;-77
2023/02/17 10:28:51;;;;;;;24.90;16.17;;;12.40;59.10;;;;;;5013139;28;20472;-77
2023/02/17 10:31:38;;;;;;;26.27;16.40;;;12.50;59.30;;;;;;5012643;28;20067;-78
2023/02/17 10:34:37;;;;;;;26.40;15.07;;;12.60;59.50;;;;;;5013568;28;20026;-78
2023/02/17 10:37:17;;;;;;;24.10;14.07;;;12.70;58.20;;;;;;4982628;28;20033;-79
2023/02/17 10:39:48;;;;;;;19.73;13.07;;;12.80;57.40;;;;;;5013907;28;20026;-78
2023/02/17 10:42:34;;;;;;;31.27;15.52;;;12.90;57.60;;;;;;4995782;28;20030;-78
2023/02/17 10:45:10;;;;;;;27.58;14.75;;;12.90;57.00;;;;;;4995629;28;20102;-79
2023/02/17 10:47:38;;;;;;;22.95;14.80;;;12.90;57.30;;;;;;5011875;28;20100;-78
2023/02/17 10:50:16;;;;;;;25.00;13.93;;;12.90;57.60;;;;;;5017788;28;20022;-79
2023/02/17 10:52:41;;;;;;;23.17;13.15;;;12.90;57.50;;;;;;5019242;28;20069;-79
2023/02/17 10:55:20;;;;;;;21.58;12.98;;;13.00;57.70;;;;;;5016131;28;20026;-78
2023/02/17 10:57:51;;;;;;;27.05;13.25;;;13.10;58.00;;;;;;5013808;28;20022;-79
2023/02/17 11:00:18;;;;;;;31.70;13.82;;;13.10;57.70;;;;;;4996290;28;20370;-79
2023/02/17 11:02:47;;;;;;;21.50;13.02;;;13.20;57.80;;;;;;5003406;28;20057;-78
2023/02/17 11:05:30;;;;;;;19.17;12.02;;;13.30;57.90;;;;;;4995864;28;20033;-78
2023/02/17 11:08:22;;;;;;;19.48;12.15;;;13.40;57.80;;;;;;4996140;28;20026;-78
2023/02/17 11:11:02;;;;;;;34.10;13.52;;;13.40;58.10;;;;;;4976489;28;20027;-79
2023/02/17 11:13:42;;;;;;;19.48;11.88;;;13.50;57.70;;;;;;5002942;28;20018;-81
2023/02/17 11:16:40;;;;;;;24.40;12.02;;;13.50;58.00;;;;;;5017071;28;20053;-80
2023/02/17 11:19:22;;;;;;;24.50;11.63;;;13.50;58.10;;;;;;5005804;28;20096;-87
2023/02/17 11:21:50;;;;;;;17.10;10.95;;;13.40;57.70;;;;;;4995111;28;20044;-83
2023/02/17 11:24:16;;;;;;;18.60;10.90;;;13.40;58.00;;;;;;5012745;28;20132;-81
2023/02/17 11:26:53;;;;;;;15.85;9.18;;;13.50;58.50;;;;;;5010698;28;20574;-82
2023/02/17 11:29:21;;;;;;;22.13;10.27;;;13.70;58.70;;;;;;5013209;28;20018;-81
2023/02/17 11:32:00;;;;;;;17.90;10.52;;;13.80;58.30;;;;;;4993000;28;20537;-81
2023/02/17 11:34:34;;;;;;;19.42;11.52;;;13.90;58.10;;;;;;5008273;28;20033;-81
2023/02/17 11:37:18;;;;;;;24.23;10.00;;;14.00;57.20;;;;;;4997272;28;20470;-81
2023/02/17 11:39:46;;;;;;;21.83;10.20;;;14.10;57.20;;;;;;5002761;28;20048;-81
2023/02/17 11:42:16;;;;;;;17.60;9.70;;;14.10;56.70;;;;;;5010298;28;20022;-81
2023/02/17 11:44:42;;;;;;;16.00;9.55;;;14.10;56.50;;;;;;4998659;28;20022;-81
2023/02/17 11:47:15;;;;;;;15.68;9.57;;;14.10;56.60;;;;;;4998623;28;20029;-82
2023/02/17 11:49:49;;;;;;;18.25;8.98;;;14.10;56.40;;;;;;4999152;28;20093;-82
2023/02/17 11:52:33;;;;;;;;;;;14.10;56.70;;;;;;5015279;28;20475;-81
2023/02/17 11:55:21;;;;;;;11.75;7.75;;;14.20;57.20;;;;;;4998768;28;19911;-81
2023/02/17 11:57:49;;;;;;;15.82;8.10;;;14.20;56.40;;;;;;4998634;28;20054;-82
2023/02/17 12:00:21;;;;;;;15.60;8.18;;;14.30;56.20;;;;;;5013197;28;20036;-81
2023/02/17 12:02:56;;;;;;;15.35;8.60;;;14.20;56.40;;;;;;5014431;28;20457;-82
2023/02/17 12:05:39;;;;;;;19.80;9.05;;;14.20;55.90;;;;;;5013493;28;20476;-82
2023/02/17 12:08:18;;;;;;;12.75;7.70;;;14.20;55.60;;;;;;5016196;28;20026;-81
2023/02/17 12:11:01;;;;;;;13.85;8.32;;;14.20;55.80;;;;;;5013747;28;20036;-84
2023/02/17 12:13:39;;;;;;;17.23;8.30;;;14.10;55.70;;;;;;4996909;28;20110;-81
2023/02/17 12:16:42;;;;;;;13.25;7.90;;;14.10;55.60;;;;;;4997789;28;20037;-80
2023/02/17 12:19:45;;;;;;;12.32;7.32;;;14.10;55.80;;;;;;4996408;28;20037;-81
2023/02/17 12:22:29;;;;;;;15.40;7.70;;;14.10;56.10;;;;;;4976585;28;20046;-81
2023/02/17 12:25:19;;;;;;;14.20;7.20;;;14.10;56.20;;;;;;4998609;28;20034;-82
2023/02/17 12:27:58;;;;;;;16.00;7.80;;;14.10;56.20;;;;;;4996777;28;20028;-81
2023/02/17 12:30:38;;;;;;;11.40;7.40;;;14.10;56.30;;;;;;4993003;28;20113;-81
2023/02/17 12:33:16;;;;;;;12.57;7.10;;;14.20;56.50;;;;;;5009515;28;20046;-82
2023/02/17 12:35:54;;;;;;;13.20;8.27;;;14.20;56.40;;;;;;4998222;28;20034;-82
2023/02/17 12:38:42;;;;;;;14.70;8.43;;;14.20;56.00;;;;;;5016083;28;20028;-82
2023/02/17 12:41:26;;;;;;;13.40;7.18;;;14.30;56.10;;;;;;4997630;28;20041;-82
2023/02/17 12:43:55;;;;;;;19.75;8.13;;;14.40;56.20;;;;;;5014368;28;20083;-81
2023/02/17 12:46:29;;;;;;;13.02;7.68;;;14.50;56.30;;;;;;5014283;28;20021;-83
2023/02/17 12:49:38;;;;;;;15.90;7.85;;;14.60;56.00;;;;;;5015511;28;20386;-83
2023/02/17 12:52:16;;;;;;;20.52;8.55;;;14.70;55.50;;;;;;5013404;28;20502;-84
2023/02/17 12:55:03;;;;;;;16.35;7.85;;;14.80;55.30;;;;;;4998027;28;20029;-86
2023/02/17 12:57:54;;;;;;;17.08;8.32;;;14.90;55.50;;;;;;4997500;28;20022;-85